Time;durP1;ratioP1;P1;durP2;ratioP2;P2;SDS_P1;SDS_P2;PMS_P1;PMS_P2;Temp;Humidity;BMP_temperature;BMP_pressure;BME280_temperature;BME280_humidity;BME280_pressure;Samples;Min_cycle;Max_cycle;Signal;HPM_P1;HPM_P2
2020/12/10 00:02:12;;;;;;;26.17;3.55;;;10.60;99.90;;;;;;5064331;28;20048;-91
2020/12/10 00:04:48;;;;;;;26.30;3.63;;;10.60;99.90;;;;;;5066527;28;20609;-91
2020/12/10 00:07:27;;;;;;;41.10;5.28;;;10.50;99.90;;;;;;5057113;28;20051;-90
2020/12/10 00:10:00;;;;;;;41.95;4.97;;;10.50;99.90;;;;;;5070243;28;20053;-90
2020/12/10 00:12:32;;;;;;;22.98;3.58;;;10.50;99.90;;;;;;5070352;28;20052;-90
2020/12/10 00:15:05;;;;;;;30.55;4.15;;;10.50;99.90;;;;;;5070772;28;20514;-90
2020/12/10 00:17:38;;;;;;;32.10;4.32;;;10.40;99.90;;;;;;5068406;28;20060;-91
2020/12/10 00:20:12;;;;;;;21.52;3.50;;;10.40;99.90;;;;;;5062430;28;20068;-90
2020/12/10 00:22:46;;;;;;;26.90;4.28;;;10.30;99.90;;;;;;5054714;28;20049;-90
2020/12/10 00:25:20;;;;;;;24.80;4.47;;;10.30;99.90;;;;;;5056557;28;20459;-91
2020/12/10 00:27:53;;;;;;;36.85;5.13;;;10.30;99.90;;;;;;5071777;28;21203;-90
2020/12/10 00:30:28;;;;;;;28.25;3.70;;;10.20;99.90;;;;;;5057610;28;20111;-90
2020/12/10 00:33:00;;;;;;;22.52;3.35;;;10.20;99.90;;;;;;5069823;28;20052;-90
2020/12/10 00:35:34;;;;;;;24.60;3.83;;;10.20;99.90;;;;;;5065499;28;20073;-90
2020/12/10 00:38:09;;;;;;;25.27;3.10;;;10.20;99.90;;;;;;5061732;28;20613;-90
2020/12/10 00:40:44;;;;;;;24.45;3.90;;;10.20;99.90;;;;;;5059461;28;20490;-90
2020/12/10 00:43:19;;;;;;;22.35;3.25;;;10.10;99.90;;;;;;5059444;28;20052;-90
2020/12/10 00:45:52;;;;;;;31.15;3.53;;;10.10;99.90;;;;;;5075418;28;20052;-90
2020/12/10 00:48:29;;;;;;;21.20;2.90;;;10.10;99.90;;;;;;5070617;28;20048;-90
2020/12/10 00:51:04;;;;;;;15.82;2.80;;;10.10;99.90;;;;;;5066630;28;20471;-90
2020/12/10 00:53:41;;;;;;;23.70;3.30;;;10.00;99.90;;;;;;5066828;28;20048;-90
2020/12/10 00:56:16;;;;;;;29.90;3.55;;;10.00;99.90;;;;;;5065345;28;20132;-91
2020/12/10 00:58:52;;;;;;;28.85;3.95;;;10.00;99.90;;;;;;5058952;28;20148;-90
2020/12/10 01:01:25;;;;;;;19.90;4.53;;;10.00;99.90;;;;;;5061055;28;20044;-91
2020/12/10 01:04:06;;;;;;;22.70;3.35;;;10.00;99.90;;;;;;5073856;28;20068;-90
2020/12/10 01:06:38;;;;;;;24.45;3.45;;;10.00;99.90;;;;;;5073716;28;20045;-90
2020/12/10 01:09:11;;;;;;;31.45;3.88;;;9.90;99.90;;;;;;5070618;28;20087;-91
2020/12/10 01:11:50;;;;;;;26.27;3.60;;;9.90;99.90;;;;;;5066891;28;20056;-90
2020/12/10 01:14:25;;;;;;;25.30;3.42;;;9.90;99.90;;;;;;5064319;28;20077;-90
2020/12/10 01:17:03;;;;;;;23.40;3.90;;;9.90;99.90;;;;;;5051800;28;20509;-90
2020/12/10 01:19:38;;;;;;;20.17;3.25;;;9.80;99.90;;;;;;5059189;28;20056;-90
2020/12/10 01:22:11;;;;;;;21.55;3.63;;;9.80;99.90;;;;;;5059332;28;20044;-90
2020/12/10 01:24:45;;;;;;;17.70;3.70;;;9.80;99.90;;;;;;5058472;28;20108;-90
2020/12/10 01:27:23;;;;;;;31.02;3.72;;;9.80;99.90;;;;;;5071622;28;20048;-90
2020/12/10 01:29:56;;;;;;;23.40;3.60;;;9.80;99.90;;;;;;5069362;28;20390;-90
2020/12/10 01:32:30;;;;;;;23.08;3.97;;;9.80;99.90;;;;;;5062849;28;20048;-90
2020/12/10 01:35:01;;;;;;;22.63;3.30;;;9.80;99.90;;;;;;5062768;28;20049;-90
2020/12/10 01:37:34;;;;;;;28.40;3.72;;;9.80;99.90;;;;;;5057834;28;20057;-91
2020/12/10 01:40:08;;;;;;;23.02;3.28;;;9.80;99.90;;;;;;5022611;28;20053;-90
2020/12/10 01:42:45;;;;;;;27.75;3.63;;;9.80;99.90;;;;;;5021569;28;20060;-91
2020/12/10 01:45:22;;;;;;;25.80;3.53;;;9.90;99.90;;;;;;5022356;28;20053;-91
2020/12/10 01:47:57;;;;;;;23.60;3.75;;;9.90;99.90;;;;;;5022573;28;20056;-90
2020/12/10 01:50:31;;;;;;;25.80;3.72;;;9.90;99.90;;;;;;5030919;28;20187;-90
2020/12/10 01:53:07;;;;;;;32.42;5.32;;;9.90;99.90;;;;;;5020413;28;20115;-90
2020/12/10 01:55:43;;;;;;;21.17;4.00;;;9.90;99.90;;;;;;5022200;28;20068;-91
2020/12/10 01:58:20;;;;;;;30.38;3.38;;;9.90;99.90;;;;;;5024048;28;20079;-90
2020/12/10 02:00:53;;;;;;;23.48;3.95;;;9.90;99.90;;;;;;5020924;28;20068;-90
2020/12/10 02:03:34;;;;;;;20.88;3.50;;;9.90;99.90;;;;;;5020904;28;20140;-91
2020/12/10 02:06:06;;;;;;;31.33;4.10;;;9.90;99.90;;;;;;5024645;28;20045;-91
2020/12/10 02:08:43;;;;;;;25.45;3.50;;;9.90;99.90;;;;;;5022831;28;20075;-90
2020/12/10 02:11:25;;;;;;;24.08;3.35;;;9.80;99.90;;;;;;5047799;28;20098;-89
2020/12/10 02:13:57;;;;;;;26.25;3.88;;;9.80;99.90;;;;;;5034453;28;20080;-90
2020/12/10 02:16:30;;;;;;;24.88;3.47;;;9.70;99.90;;;;;;5032696;28;20059;-91
2020/12/10 02:19:05;;;;;;;21.08;3.20;;;9.70;99.90;;;;;;5021466;28;20057;-90
2020/12/10 02:21:45;;;;;;;13.60;2.80;;;9.70;99.90;;;;;;5035487;28;20068;-91
2020/12/10 02:24:21;;;;;;;19.27;3.05;;;9.70;99.90;;;;;;5022238;28;20084;-91
2020/12/10 02:26:56;;;;;;;13.40;2.38;;;9.60;99.90;;;;;;5036670;28;20048;-90
2020/12/10 02:29:30;;;;;;;14.50;2.45;;;9.60;99.90;;;;;;5032174;28;20041;-91
2020/12/10 02:32:02;;;;;;;13.52;2.40;;;9.60;99.90;;;;;;5034554;28;20096;-90
2020/12/10 02:34:37;;;;;;;15.10;2.45;;;9.50;99.90;;;;;;5034283;28;20084;-90
2020/12/10 02:37:17;;;;;;;21.63;2.42;;;9.60;99.90;;;;;;5020661;28;20434;-89
2020/12/10 02:39:54;;;;;;;15.23;2.30;;;9.60;99.90;;;;;;5069695;28;20061;-91
2020/12/10 02:42:29;;;;;;;20.38;3.22;;;9.60;99.90;;;;;;5057752;28;20067;-91
2020/12/10 02:45:04;;;;;;;15.18;2.42;;;9.60;99.90;;;;;;5072979;28;20103;-90
2020/12/10 02:47:36;;;;;;;19.90;2.47;;;9.60;99.90;;;;;;5060581;28;20431;-90
2020/12/10 02:50:09;;;;;;;15.07;2.40;;;9.60;99.90;;;;;;5062978;28;20111;-90
2020/12/10 02:52:41;;;;;;;19.05;3.00;;;9.60;99.90;;;;;;5057265;28;20110;-90
2020/12/10 02:55:18;;;;;;;14.68;2.42;;;9.60;99.90;;;;;;5042982;28;20454;-91
2020/12/10 02:57:56;;;;;;;17.63;2.45;;;9.60;99.90;;;;;;5056139;28;20110;-91
2020/12/10 03:00:30;;;;;;;15.73;3.03;;;9.60;99.90;;;;;;5046529;28;20463;-90
2020/12/10 03:03:05;;;;;;;25.23;3.20;;;9.70;99.90;;;;;;5057455;28;20095;-91
2020/12/10 03:05:38;;;;;;;11.57;1.90;;;9.70;99.90;;;;;;5057546;28;20053;-90
2020/12/10 03:08:11;;;;;;;11.80;1.65;;;9.70;99.90;;;;;;5059778;28;20063;-90
2020/12/10 03:10:43;;;;;;;10.45;1.50;;;9.70;99.90;;;;;;5068365;28;20048;-90
2020/12/10 03:13:19;;;;;;;5.25;1.10;;;9.70;99.90;;;;;;5057660;28;20072;-91
2020/12/10 03:15:54;;;;;;;8.27;1.13;;;9.70;99.90;;;;;;5071517;28;20068;-91
2020/12/10 03:18:31;;;;;;;10.45;1.35;;;9.60;99.90;;;;;;5054479;28;20099;-91
2020/12/10 03:21:05;;;;;;;12.10;1.73;;;9.60;99.90;;;;;;5072222;28;20531;-91
2020/12/10 03:23:42;;;;;;;10.30;1.55;;;9.60;99.90;;;;;;5069222;28;20049;-90
2020/12/10 03:26:13;;;;;;;9.50;1.52;;;9.50;99.90;;;;;;5068638;28;20047;-90
2020/12/10 03:28:48;;;;;;;12.32;2.17;;;9.50;99.90;;;;;;5069440;28;20482;-90
2020/12/10 03:31:29;;;;;;;15.23;2.25;;;9.50;99.90;;;;;;5069161;28;20115;-90
2020/12/10 03:34:02;;;;;;;16.08;2.15;;;9.40;99.90;;;;;;5071570;28;20052;-90
2020/12/10 03:36:58;;;;;;;11.52;2.05;;;9.40;99.90;;;;;;5068943;28;20119;-91
2020/12/10 03:39:33;;;;;;;14.90;2.63;;;9.40;99.90;;;;;;5041822;28;20402;-92
2020/12/10 03:42:14;;;;;;;21.95;2.70;;;9.40;99.90;;;;;;5088119;28;20706;-91
2020/12/10 03:44:52;;;;;;;16.10;2.00;;;9.40;99.90;;;;;;5068711;28;20466;-91
2020/12/10 03:47:28;;;;;;;18.58;3.33;;;9.30;99.90;;;;;;5068114;28;20102;-91
2020/12/10 03:50:03;;;;;;;22.85;3.40;;;9.30;99.90;;;;;;5065585;28;20045;-91
2020/12/10 03:52:40;;;;;;;20.48;2.85;;;9.30;99.90;;;;;;5060676;28;20076;-91
2020/12/10 03:55:14;;;;;;;22.55;3.65;;;9.30;99.90;;;;;;5056658;28;20518;-91
2020/12/10 03:57:52;;;;;;;20.42;2.58;;;9.30;99.90;;;;;;5055817;28;20351;-90
2020/12/10 04:00:30;;;;;;;23.23;3.72;;;9.30;99.90;;;;;;5056157;28;20052;-90
2020/12/10 04:03:06;;;;;;;22.48;3.28;;;9.30;99.90;;;;;;5071241;28;20527;-90
2020/12/10 04:05:39;;;;;;;24.65;3.28;;;9.40;99.90;;;;;;5066032;28;20425;-90
2020/12/10 04:08:26;;;;;;;26.48;3.00;;;9.40;99.90;;;;;;5067861;28;20052;-90
2020/12/10 04:10:58;;;;;;;25.88;3.30;;;9.40;99.90;;;;;;5065389;28;20418;-90
2020/12/10 04:13:35;;;;;;;22.15;2.97;;;9.40;99.90;;;;;;5043045;28;20052;-90
2020/12/10 04:16:09;;;;;;;23.92;3.10;;;9.40;99.90;;;;;;5054618;28;20045;-90
2020/12/10 04:18:44;;;;;;;23.40;3.25;;;9.40;99.90;;;;;;5069445;28;20083;-90
2020/12/10 04:21:17;;;;;;;20.00;3.10;;;9.50;99.90;;;;;;5068383;28;20139;-90
2020/12/10 04:24:00;;;;;;;24.00;3.65;;;9.50;99.90;;;;;;5067018;28;20049;-90
2020/12/10 04:26:33;;;;;;;19.15;2.90;;;9.60;99.90;;;;;;5068546;28;20055;-90
2020/12/10 04:29:13;;;;;;;12.02;2.17;;;9.60;99.90;;;;;;5064891;28;20074;-91
2020/12/10 04:31:51;;;;;;;12.15;1.63;;;9.50;99.90;;;;;;5066896;28;20075;-91
2020/12/10 04:34:26;;;;;;;10.25;1.52;;;9.50;99.90;;;;;;5070246;28;20049;-90
2020/12/10 04:37:01;;;;;;;11.13;1.30;;;9.40;99.90;;;;;;5055565;28;20048;-91
2020/12/10 04:39:50;;;;;;;14.40;1.95;;;9.30;99.90;;;;;;5070316;28;20064;-90
2020/12/10 04:42:24;;;;;;;23.20;2.13;;;9.30;99.90;;;;;;5068237;28;20060;-90
2020/12/10 04:44:59;;;;;;;18.77;2.53;;;9.30;99.90;;;;;;5038504;28;20069;-90
2020/12/10 04:47:35;;;;;;;14.68;2.30;;;9.30;99.90;;;;;;5056771;28;20049;-91
2020/12/10 04:50:19;;;;;;;22.60;3.10;;;9.30;99.90;;;;;;5059319;28;20052;-90
2020/12/10 04:52:55;;;;;;;23.95;2.80;;;9.30;99.90;;;;;;5063337;28;20455;-90
2020/12/10 04:55:31;;;;;;;24.23;2.80;;;9.30;99.90;;;;;;5055312;28;20052;-90
2020/12/10 04:58:07;;;;;;;18.35;3.10;;;9.30;99.90;;;;;;5055731;28;20079;-91
2020/12/10 05:00:42;;;;;;;18.67;2.65;;;9.30;99.90;;;;;;5059235;28;20052;-90
2020/12/10 05:03:17;;;;;;;24.38;3.50;;;9.40;99.90;;;;;;5069010;28;20048;-91
2020/12/10 05:05:54;;;;;;;31.25;3.53;;;9.40;99.90;;;;;;5056839;28;20153;-91
2020/12/10 05:08:31;;;;;;;;;;;9.40;99.90;;;;;;5055949;28;20057;-91
2020/12/10 05:11:04;;;;;;;24.00;3.08;;;9.40;99.90;;;;;;5058468;28;19920;-91
2020/12/10 05:13:39;;;;;;;26.40;3.70;;;9.40;99.90;;;;;;5068047;28;20060;-90
2020/12/10 05:16:27;;;;;;;21.60;3.17;;;9.40;99.90;;;;;;5057029;28;20051;-90
2020/12/10 05:19:22;;;;;;;22.90;3.15;;;9.50;99.90;;;;;;5059180;28;20052;-91
2020/12/10 05:22:05;;;;;;;25.35;3.60;;;9.50;99.90;;;;;;5092428;28;20406;-91
2020/12/10 05:24:37;;;;;;;27.67;3.25;;;9.50;99.90;;;;;;5060343;28;20055;-90
2020/12/10 05:27:24;;;;;;;27.55;3.15;;;9.60;99.90;;;;;;5070940;28;20055;-90
2020/12/10 05:30:00;;;;;;;20.13;2.63;;;9.60;99.90;;;;;;5058350;28;20052;-91
2020/12/10 05:32:44;;;;;;;22.20;3.25;;;9.60;99.90;;;;;;5058797;28;20056;-90
2020/12/10 05:35:24;;;;;;;23.15;3.67;;;9.70;99.90;;;;;;5047408;28;20045;-91
2020/12/10 05:38:08;;;;;;;21.37;3.10;;;9.70;99.90;;;;;;5059930;28;20057;-91
2020/12/10 05:41:03;;;;;;;33.65;3.88;;;9.70;99.90;;;;;;5033325;28;20057;-91
2020/12/10 05:43:35;;;;;;;20.00;2.78;;;9.70;99.90;;;;;;5034082;28;20045;-88
2020/12/10 05:46:04;;;;;;;18.25;2.75;;;9.80;99.90;;;;;;5021413;28;20128;-89
2020/12/10 05:48:39;;;;;;;19.88;2.88;;;9.80;99.90;;;;;;5023848;28;20080;-91
2020/12/10 05:51:31;;;;;;;21.40;2.88;;;9.80;99.90;;;;;;5028715;28;20115;-92
2020/12/10 05:54:18;;;;;;;15.32;2.70;;;9.80;99.90;;;;;;5022500;28;20113;-91
2020/12/10 05:56:59;;;;;;;17.25;3.13;;;9.80;99.90;;;;;;5024912;28;20506;-91
2020/12/10 05:59:31;;;;;;;26.50;3.80;;;9.80;99.90;;;;;;5026270;28;20409;-89
2020/12/10 06:02:04;;;;;;;17.90;3.15;;;9.80;99.90;;;;;;5033006;28;20050;-91
2020/12/10 06:04:43;;;;;;;18.67;2.92;;;9.80;99.90;;;;;;5023435;28;20049;-91
2020/12/10 06:07:19;;;;;;;26.05;3.63;;;9.80;99.90;;;;;;5038664;28;20044;-91
2020/12/10 06:10:00;;;;;;;25.77;3.03;;;9.80;99.90;;;;;;5037949;28;20554;-91
2020/12/10 06:12:37;;;;;;;25.55;4.03;;;9.80;99.90;;;;;;5032900;28;20045;-91
2020/12/10 06:15:15;;;;;;;23.08;3.30;;;9.80;99.90;;;;;;5035026;28;20053;-92
2020/12/10 06:18:04;;;;;;;24.65;3.72;;;9.80;99.90;;;;;;5033066;28;20053;-91
2020/12/10 06:20:49;;;;;;;20.52;2.67;;;9.80;99.90;;;;;;5033868;28;20056;-91
2020/12/10 06:23:27;;;;;;;16.13;3.15;;;9.90;99.90;;;;;;5026442;28;20047;-91
2020/12/10 06:26:20;;;;;;;18.17;2.53;;;9.90;99.90;;;;;;5029762;28;20061;-91
2020/12/10 06:29:24;;;;;;;18.55;2.55;;;9.90;99.90;;;;;;5017136;28;20044;-90
2020/12/10 06:32:13;;;;;;;22.30;2.80;;;9.90;99.90;;;;;;5033374;28;20120;-91
2020/12/10 06:34:50;;;;;;;21.27;3.17;;;9.90;99.90;;;;;;5020240;28;20061;-91
2020/12/10 06:37:32;;;;;;;23.85;3.50;;;9.90;99.90;;;;;;5036057;28;20984;-91
2020/12/10 06:40:09;;;;;;;23.75;3.13;;;9.90;99.90;;;;;;5006172;28;20049;-91
2020/12/10 06:42:49;;;;;;;26.27;3.47;;;9.90;99.90;;;;;;5020771;28;20041;-90
2020/12/10 06:45:43;;;;;;;21.50;3.63;;;10.00;99.90;;;;;;5036084;28;20501;-91
2020/12/10 06:48:22;;;;;;;27.23;4.35;;;10.00;99.90;;;;;;5036862;28;20057;-91
2020/12/10 06:51:11;;;;;;;20.60;3.28;;;10.00;99.90;;;;;;5026015;28;20052;-91
2020/12/10 06:54:00;;;;;;;20.42;3.05;;;10.00;99.90;;;;;;5054910;28;20076;-91
2020/12/10 06:56:51;;;;;;;22.07;2.80;;;10.10;99.90;;;;;;5052695;28;20105;-92
2020/12/10 06:59:41;;;;;;;12.98;2.15;;;10.00;99.90;;;;;;5051574;28;20048;-91
2020/12/10 07:02:21;;;;;;;12.07;2.15;;;10.00;99.90;;;;;;5052993;28;20049;-90
2020/12/10 07:05:00;;;;;;;13.63;2.08;;;10.10;99.90;;;;;;5067695;28;20423;-91
2020/12/10 07:07:30;;;;;;;12.65;2.03;;;10.00;99.90;;;;;;5051551;28;20098;-88
2020/12/10 07:10:02;;;;;;;13.27;2.20;;;10.00;99.90;;;;;;5056027;28;20136;-92
2020/12/10 07:12:36;;;;;;;13.27;2.50;;;10.00;99.90;;;;;;5050271;28;20051;-90
2020/12/10 07:15:15;;;;;;;18.35;2.65;;;10.10;99.90;;;;;;5053475;28;20063;-91
2020/12/10 07:17:50;;;;;;;23.98;3.17;;;10.10;99.90;;;;;;5052967;28;20079;-90
2020/12/10 07:20:32;;;;;;;20.60;3.30;;;10.00;99.90;;;;;;5050388;28;20053;-91
2020/12/10 07:23:06;;;;;;;20.73;3.40;;;10.00;99.90;;;;;;5051520;28;20111;-91
2020/12/10 07:25:40;;;;;;;19.15;3.00;;;10.10;99.90;;;;;;5047730;28;20048;-90
2020/12/10 07:28:22;;;;;;;16.25;2.90;;;10.10;99.90;;;;;;5057405;28;20051;-90
2020/12/10 07:30:55;;;;;;;25.02;3.33;;;10.10;99.90;;;;;;5056748;28;20072;-90
2020/12/10 07:33:27;;;;;;;25.25;3.47;;;10.10;99.90;;;;;;5039460;28;20048;-90
2020/12/10 07:36:09;;;;;;;21.88;3.83;;;10.20;99.90;;;;;;5052407;28;20052;-90
2020/12/10 07:38:47;;;;;;;24.15;3.72;;;10.20;99.90;;;;;;5051561;28;20139;-90
2020/12/10 07:41:39;;;;;;;20.40;3.40;;;10.20;99.90;;;;;;5068324;28;20529;-90
2020/12/10 07:44:11;;;;;;;23.85;4.30;;;10.20;99.90;;;;;;5052161;28;20056;-90
2020/12/10 07:46:45;;;;;;;25.10;3.42;;;10.20;99.90;;;;;;5053493;28;20048;-90
2020/12/10 07:49:27;;;;;;;21.20;3.20;;;10.20;99.90;;;;;;5040578;28;20375;-91
2020/12/10 07:52:05;;;;;;;24.33;3.38;;;10.20;99.90;;;;;;5051096;28;20049;-91
2020/12/10 07:54:50;;;;;;;26.45;3.78;;;10.30;99.90;;;;;;5057006;28;20078;-90
2020/12/10 07:57:25;;;;;;;23.88;4.35;;;10.30;99.90;;;;;;5040635;28;20068;-91
2020/12/10 08:00:10;;;;;;;23.10;3.50;;;10.30;99.90;;;;;;5050956;28;20048;-90
2020/12/10 08:03:16;;;;;;;27.27;4.47;;;10.30;99.90;;;;;;5028120;28;20080;-90
2020/12/10 08:06:08;;;;;;;22.98;4.55;;;10.30;99.90;;;;;;5053490;28;20049;-90
2020/12/10 08:08:58;;;;;;;31.70;4.35;;;10.30;99.90;;;;;;5029532;28;20053;-90
2020/12/10 08:11:33;;;;;;;30.35;4.55;;;10.30;99.90;;;;;;5049573;28;20037;-91
2020/12/10 08:14:08;;;;;;;24.02;3.92;;;10.30;99.90;;;;;;5054571;28;20058;-90
2020/12/10 08:16:47;;;;;;;;;;;10.30;99.90;;;;;;5052622;28;20106;-91
2020/12/10 08:19:27;;;;;;;29.05;4.05;;;10.30;99.90;;;;;;5056201;28;19921;-91
2020/12/10 08:22:01;;;;;;;24.23;4.22;;;10.30;99.90;;;;;;5054128;28;20068;-91
2020/12/10 08:24:38;;;;;;;30.70;3.92;;;10.30;99.90;;;;;;5056230;28;20052;-91
2020/12/10 08:27:17;;;;;;;19.88;3.63;;;10.30;99.90;;;;;;5055284;28;20074;-90
2020/12/10 08:30:10;;;;;;;31.42;4.72;;;10.20;99.90;;;;;;5051519;28;20044;-90
2020/12/10 08:33:02;;;;;;;37.63;4.55;;;10.10;99.90;;;;;;5051361;28;20482;-90
2020/12/10 08:35:46;;;;;;;28.02;3.65;;;10.10;99.90;;;;;;5052484;28;20478;-90
2020/12/10 08:38:23;;;;;;;26.38;3.80;;;10.10;99.90;;;;;;5033865;28;20061;-90
2020/12/10 08:41:02;;;;;;;29.35;3.92;;;10.00;99.90;;;;;;5028826;28;20052;-90
2020/12/10 08:43:34;;;;;;;30.55;3.58;;;9.90;99.90;;;;;;5052995;28;20056;-90
2020/12/10 08:46:15;;;;;;;31.48;4.35;;;9.90;99.90;;;;;;5055630;28;20448;-90
2020/12/10 08:48:50;;;;;;;29.80;4.80;;;9.90;99.90;;;;;;5057355;28;20060;-90
2020/12/10 08:51:40;;;;;;;30.90;4.30;;;9.80;99.90;;;;;;5075418;28;20519;-90
2020/12/10 08:54:13;;;;;;;32.00;4.70;;;9.80;99.90;;;;;;5055839;28;20110;-90
2020/12/10 08:57:11;;;;;;;29.05;3.78;;;9.80;99.90;;;;;;5056479;28;20432;-90
2020/12/10 08:59:44;;;;;;;25.10;4.43;;;9.80;99.90;;;;;;5053228;28;20055;-90
2020/12/10 09:02:18;;;;;;;31.88;4.68;;;9.80;99.90;;;;;;5037830;28;20052;-91
2020/12/10 09:05:15;;;;;;;32.35;4.05;;;9.90;99.90;;;;;;5062970;28;20489;-91
2020/12/10 09:07:49;;;;;;;23.90;3.88;;;9.90;99.90;;;;;;5056552;28;20045;-90
2020/12/10 09:10:42;;;;;;;28.80;3.85;;;9.90;99.90;;;;;;5061849;28;20397;-90
2020/12/10 09:13:23;;;;;;;24.08;4.05;;;10.00;99.90;;;;;;5075586;28;20079;-90
2020/12/10 09:15:57;;;;;;;26.02;3.97;;;10.00;99.90;;;;;;5057780;28;20066;-90
2020/12/10 09:18:33;;;;;;;18.75;2.60;;;10.00;99.90;;;;;;5057541;28;20048;-90
2020/12/10 09:21:27;;;;;;;20.77;2.47;;;10.10;99.90;;;;;;5071908;28;20079;-90
2020/12/10 09:24:07;;;;;;;17.88;2.47;;;10.00;99.90;;;;;;5064189;28;20522;-90
2020/12/10 09:26:53;;;;;;;15.07;2.70;;;10.10;99.90;;;;;;5072824;28;20482;-90
2020/12/10 09:29:27;;;;;;;22.40;2.60;;;10.10;99.90;;;;;;5055970;28;20097;-90
2020/12/10 09:31:57;;;;;;;19.77;2.58;;;10.20;99.90;;;;;;5054003;28;20053;-90
2020/12/10 09:34:30;;;;;;;19.10;2.90;;;10.20;99.90;;;;;;5055922;28;20045;-90
2020/12/10 09:37:05;;;;;;;22.73;3.38;;;10.30;99.90;;;;;;5042993;28;20130;-90
2020/12/10 09:39:46;;;;;;;17.02;2.70;;;10.30;99.90;;;;;;5056581;28;20056;-90
2020/12/10 09:42:18;;;;;;;19.20;3.05;;;10.40;99.90;;;;;;5034248;28;20045;-90
2020/12/10 09:44:55;;;;;;;17.42;2.63;;;10.50;99.90;;;;;;5054377;28;20083;-90
2020/12/10 09:47:32;;;;;;;19.35;3.25;;;10.50;99.90;;;;;;5052963;28;20497;-90
2020/12/10 09:50:19;;;;;;;16.60;2.90;;;10.50;99.90;;;;;;5055818;28;20047;-90
2020/12/10 09:58:31;;;;;;;17.00;3.00;;;10.60;99.90;;;;;;5061613;28;20049;-90
2020/12/10 10:01:10;;;;;;;16.70;2.70;;;10.70;99.90;;;;;;5037959;28;20106;-90
2020/12/10 10:03:44;;;;;;;16.10;2.50;;;10.70;99.90;;;;;;5068577;28;20060;-90
2020/12/10 10:06:17;;;;;;;18.80;2.90;;;10.80;99.90;;;;;;5044405;28;20053;-90
2020/12/10 10:08:52;;;;;;;16.50;3.10;;;10.90;99.90;;;;;;5041011;28;20085;-90
2020/12/10 10:11:26;;;;;;;19.83;3.03;;;10.90;99.90;;;;;;5037394;28;20044;-90
2020/12/10 10:14:02;;;;;;;20.33;2.90;;;10.90;99.90;;;;;;5044806;28;20076;-90
2020/12/10 10:16:37;;;;;;;13.25;2.90;;;11.00;99.90;;;;;;5056134;28;20041;-90
2020/12/10 10:19:12;;;;;;;20.00;3.20;;;11.00;99.90;;;;;;5040971;28;20432;-90
2020/12/10 10:22:10;;;;;;;21.85;3.38;;;11.00;99.90;;;;;;5059097;28;20132;-90
2020/12/10 10:24:46;;;;;;;20.65;3.08;;;11.10;99.90;;;;;;5055400;28;20048;-90
2020/12/10 10:27:21;;;;;;;19.27;3.30;;;11.10;99.90;;;;;;5043872;28;20056;-90
2020/12/10 10:30:17;;;;;;;19.63;3.35;;;11.20;99.90;;;;;;5042910;28;20041;-90
2020/12/10 10:33:22;;;;;;;13.20;2.05;;;11.20;99.90;;;;;;5068738;28;20066;-90
2020/12/10 10:36:17;;;;;;;13.23;2.00;;;11.30;99.90;;;;;;5055373;28;20134;-91
2020/12/10 10:38:51;;;;;;;12.95;2.60;;;11.40;99.90;;;;;;5046166;28;20110;-90
2020/12/10 10:41:24;;;;;;;16.95;2.85;;;11.40;99.90;;;;;;5048985;28;20055;-90
2020/12/10 10:43:54;;;;;;;11.15;2.13;;;11.40;99.90;;;;;;5063673;28;20121;-91
2020/12/10 10:46:26;;;;;;;12.95;2.17;;;11.30;99.90;;;;;;5058443;28;20064;-91
2020/12/10 10:48:59;;;;;;;13.55;2.08;;;11.30;99.90;;;;;;5055467;28;20467;-90
2020/12/10 10:51:37;;;;;;;13.90;2.17;;;11.30;99.90;;;;;;5064264;28;20102;-90
2020/12/10 10:54:09;;;;;;;11.23;2.15;;;11.40;99.90;;;;;;5056048;28;20499;-90
2020/12/10 10:57:17;;;;;;;10.77;1.70;;;11.40;99.90;;;;;;5057395;28;20135;-90
2020/12/10 10:59:53;;;;;;;15.98;2.38;;;11.40;99.90;;;;;;4997706;28;20058;-90
2020/12/10 11:02:58;;;;;;;13.65;2.35;;;11.40;99.90;;;;;;4994214;28;20493;-90
2020/12/10 11:05:54;;;;;;;11.73;1.80;;;11.40;99.90;;;;;;4994012;28;20050;-90
2020/12/10 11:08:27;;;;;;;14.85;2.28;;;11.30;99.90;;;;;;4994030;28;20045;-91
2020/12/10 11:11:21;;;;;;;16.30;2.70;;;11.30;99.90;;;;;;5007248;28;20064;-90
2020/12/10 11:14:16;;;;;;;14.82;2.13;;;11.30;99.90;;;;;;5008852;28;20096;-91
2020/12/10 11:16:57;;;;;;;15.93;2.50;;;11.30;99.90;;;;;;5006196;28;20050;-91
2020/12/10 11:19:32;;;;;;;12.50;1.80;;;11.40;99.90;;;;;;4995193;28;20046;-90
2020/12/10 11:22:08;;;;;;;11.85;1.80;;;11.40;99.90;;;;;;4995921;28;20449;-91
2020/12/10 11:24:43;;;;;;;12.05;1.70;;;11.40;99.90;;;;;;4996439;28;20050;-90
2020/12/10 11:27:39;;;;;;;16.02;2.00;;;11.50;99.90;;;;;;4999363;28;20098;-91
2020/12/10 11:30:10;;;;;;;15.63;2.30;;;11.40;99.90;;;;;;5011265;28;20057;-90
2020/12/10 11:32:47;;;;;;;13.02;1.95;;;11.40;99.90;;;;;;5058860;28;20049;-90
2020/12/10 11:35:39;;;;;;;16.10;2.00;;;11.40;99.90;;;;;;5057627;28;20150;-91
2020/12/10 11:38:11;;;;;;;16.75;2.50;;;11.50;99.90;;;;;;5064725;28;20056;-89
2020/12/10 11:40:45;;;;;;;13.77;2.00;;;11.40;99.90;;;;;;5066655;28;20049;-89
2020/12/10 11:43:20;;;;;;;11.27;1.60;;;11.40;99.90;;;;;;5070043;28;20049;-90
2020/12/10 11:46:01;;;;;;;16.33;2.17;;;11.30;99.90;;;;;;5055258;28;20057;-90
2020/12/10 11:49:11;;;;;;;15.07;2.17;;;11.30;99.90;;;;;;5045069;28;20057;-90
2020/12/10 11:51:50;;;;;;;15.85;2.20;;;11.30;99.90;;;;;;5038770;28;20049;-89
2020/12/10 11:54:29;;;;;;;18.48;2.10;;;11.20;99.90;;;;;;5026452;28;20053;-91
2020/12/10 11:57:05;;;;;;;13.00;1.63;;;11.20;99.90;;;;;;5025448;28;20053;-91
2020/12/10 11:59:49;;;;;;;11.38;1.40;;;11.20;99.90;;;;;;5044408;28;20416;-90
2020/12/10 12:02:27;;;;;;;18.38;2.13;;;11.20;99.90;;;;;;5027128;28;20171;-89
2020/12/10 12:04:59;;;;;;;11.40;1.90;;;11.20;99.90;;;;;;5027417;28;20528;-89
2020/12/10 12:07:31;;;;;;;11.05;2.00;;;11.20;99.90;;;;;;5029624;28;20048;-91
2020/12/10 12:10:02;;;;;;;11.85;1.90;;;11.20;99.90;;;;;;5027602;28;20172;-91
2020/12/10 12:13:02;;;;;;;8.50;1.95;;;11.20;99.90;;;;;;5047113;28;20064;-91
2020/12/10 12:15:41;;;;;;;11.80;1.60;;;11.30;99.90;;;;;;5045653;28;20433;-91
2020/12/10 12:18:12;;;;;;;9.68;1.60;;;11.30;99.90;;;;;;5023459;28;20064;-90
2020/12/10 12:20:48;;;;;;;11.52;1.75;;;11.30;99.90;;;;;;5029262;28;20048;-90
2020/12/10 12:23:27;;;;;;;14.10;1.70;;;11.30;99.90;;;;;;5027528;28;20092;-90
2020/12/10 12:26:02;;;;;;;9.95;1.92;;;11.30;99.90;;;;;;5026988;28;20056;-91
2020/12/10 12:28:34;;;;;;;8.25;1.17;;;11.30;99.90;;;;;;5032002;28;20041;-90
2020/12/10 12:31:05;;;;;;;8.13;1.17;;;11.30;99.90;;;;;;5031140;28;20052;-91
2020/12/10 12:34:03;;;;;;;8.10;1.35;;;11.40;99.90;;;;;;5070606;28;20088;-90
2020/12/10 12:36:44;;;;;;;8.38;1.60;;;11.50;99.90;;;;;;5060572;28;20079;-90
2020/12/10 12:39:26;;;;;;;8.05;1.48;;;11.60;99.90;;;;;;5076251;28;20059;-90
2020/12/10 12:42:20;;;;;;;6.15;0.98;;;11.70;99.90;;;;;;5052425;28;20470;-90
2020/12/10 12:44:53;;;;;;;8.88;1.52;;;11.80;99.90;;;;;;5072178;28;20154;-89
2020/12/10 12:47:27;;;;;;;9.93;1.10;;;11.80;99.90;;;;;;5069324;28;20110;-90
2020/12/10 12:50:00;;;;;;;14.13;1.40;;;11.80;99.90;;;;;;5074892;28;20048;-90
2020/12/10 12:52:43;;;;;;;6.15;1.15;;;11.70;99.90;;;;;;5067952;28;20073;-90
2020/12/10 12:55:17;;;;;;;8.15;1.23;;;11.70;99.90;;;;;;5071043;28;20364;-90
2020/12/10 12:58:08;;;;;;;8.88;1.55;;;11.70;99.90;;;;;;5059366;28;20084;-89
2020/12/10 13:00:44;;;;;;;7.28;1.20;;;11.70;99.90;;;;;;5072856;28;20048;-90
2020/12/10 13:03:19;;;;;;;10.30;1.45;;;11.70;99.90;;;;;;5056506;28;20049;-91
2020/12/10 13:05:55;;;;;;;;;;;11.70;99.90;;;;;;5062755;28;20075;-90
2020/12/10 13:08:26;;;;;;;10.10;2.13;;;11.60;99.90;;;;;;5062630;28;19920;-90
2020/12/10 13:11:02;;;;;;;11.50;1.42;;;11.60;99.90;;;;;;5061861;28;20053;-90
2020/12/10 13:13:38;;;;;;;8.52;1.85;;;11.60;99.90;;;;;;5062292;28;20155;-91
2020/12/10 13:16:11;;;;;;;10.98;1.70;;;11.60;99.90;;;;;;5071090;28;20459;-90
2020/12/10 13:19:06;;;;;;;10.07;1.38;;;11.70;99.90;;;;;;5061983;28;20525;-90
2020/12/10 13:21:43;;;;;;;7.53;1.15;;;11.70;99.90;;;;;;5061409;28;20487;-91
2020/12/10 13:24:16;;;;;;;13.43;1.80;;;11.70;99.90;;;;;;5072720;28;20052;-90
2020/12/10 13:27:09;;;;;;;9.85;1.50;;;11.70;99.90;;;;;;5059278;28;20457;-90
2020/12/10 13:29:41;;;;;;;12.70;2.28;;;11.70;99.90;;;;;;5068290;28;20056;-90
2020/12/10 13:32:40;;;;;;;11.82;1.50;;;11.70;99.90;;;;;;5069170;28;20053;-90
2020/12/10 13:35:21;;;;;;;13.00;1.60;;;11.70;99.90;;;;;;5059508;28;20463;-90
2020/12/10 13:38:07;;;;;;;8.07;2.03;;;11.60;99.90;;;;;;5059052;28;20049;-90
2020/12/10 13:40:43;;;;;;;11.38;1.70;;;11.50;99.90;;;;;;5054727;28;20045;-90
2020/12/10 13:43:40;;;;;;;13.70;2.08;;;11.50;99.90;;;;;;5040913;28;20504;-90
2020/12/10 13:46:15;;;;;;;8.15;1.65;;;11.50;99.90;;;;;;5056349;28;20496;-91
2020/12/10 13:48:48;;;;;;;12.85;2.17;;;11.50;99.90;;;;;;5056189;28;20055;-90